| time (UTC) | temp C | wind direction | speed KPH | gust KPH | rain 1hr cm | rain 24hr cm | rain mn cm | humidity % | barometer mb |
| 20260507031002 | 13 | 336 | 1.6 | 9.7 | 0.05 | 0.84 | 0.84 | 91 | 1008.2 |
| 20260507030502 | 13 | 342 | 1.6 | 9.7 | 0.05 | 0.84 | 0.84 | 90 | 1008.2 |
| 20260507030004 | 13 | 337 | 1.6 | 6.4 | 0.03 | 0.81 | 0.81 | 90 | 1008.4 |
| 20260507025502 | 13 | 348 | 1.6 | 9.7 | 0.08 | 0.81 | 0.81 | 90 | 1008.4 |
| 20260507025003 | 13 | 355 | 1.6 | 9.7 | 0.13 | 0.79 | 0.79 | 90 | 1008.2 |
| 20260507024502 | 14 | 343 | 1.6 | 9.7 | 0.13 | 0.79 | 0.79 | 91 | 1008.1 |
| 20260507024002 | 14 | 343 | 3.2 | 9.7 | 0.13 | 0.79 | 0.79 | 91 | 1008.0 |
| 20260507023502 | 14 | 347 | 1.6 | 6.4 | 0.13 | 0.79 | 0.79 | 91 | 1007.9 |
| 20260507022502 | 14 | 355 | 4.8 | 14.5 | 0.13 | 0.79 | 0.79 | 90 | 1007.8 |
| 20260507022002 | 14 | 356 | 3.2 | 8.0 | 0.13 | 0.79 | 0.79 | 91 | 1008.0 |
| 20260507021503 | 15 | 349 | 1.6 | 6.4 | 0.13 | 0.79 | 0.79 | 91 | 1008.1 |
| 20260507020003 | 15 | 346 | 3.2 | 12.9 | 0.20 | 0.79 | 0.79 | 91 | 1008.2 |
| 20260507015002 | 16 | 349 | 1.6 | 8.0 | 0.20 | 0.66 | 0.66 | 91 | 1008.2 |
| 20260507014503 | 16 | 350 | 3.2 | 14.5 | 0.20 | 0.66 | 0.66 | 91 | 1008.0 |
| 20260507014002 | 16 | 344 | 4.8 | 14.5 | 0.20 | 0.66 | 0.66 | 91 | 1008.2 |
| 20260507013502 | 16 | 332 | 1.6 | 11.3 | 0.20 | 0.66 | 0.66 | 92 | 1008.2 |
| 20260507013002 | 16 | 325 | 1.6 | 6.4 | 0.20 | 0.66 | 0.66 | 92 | 1008.3 |
| 20260507012002 | 16 | 327 | 1.6 | 6.4 | 0.20 | 0.66 | 0.66 | 91 | 1008.1 |
| 20260507011502 | 16 | 323 | 3.2 | 8.0 | 0.20 | 0.66 | 0.66 | 90 | 1007.9 |
| 20260507010002 | 17 | 337 | 3.2 | 14.5 | 0.10 | 0.56 | 0.56 | 88 | 1007.9 |
| 20260507005003 | 17 | 264 | 0.0 | 1.6 | 0.00 | 0.46 | 0.46 | 89 | 1007.6 |
| 20260507004502 | 17 | 239 | 0.0 | 1.6 | 0.00 | 0.46 | 0.46 | 89 | 1007.4 |
| 20260507004002 | 17 | 0 | 0.0 | 0.0 | 0.00 | 0.46 | 0.46 | 89 | 1007.4 |
| 20260507003503 | 17 | 0 | 0.0 | 0.0 | 0.00 | 0.46 | 0.46 | 89 | 1007.5 |
| 20260507003002 | 17 | 235 | 0.0 | 3.2 | 0.00 | 0.46 | 0.46 | 89 | 1007.5 |
| 20260507002002 | 17 | 232 | 0.0 | 1.6 | 0.00 | 0.46 | 0.46 | 88 | 1007.5 |
| 20260507001505 | 17 | 232 | 0.0 | 1.6 | 0.00 | 0.46 | 0.46 | 88 | 1007.1 |
| 20260507001002 | 17 | 232 | 0.0 | 1.6 | 0.00 | 0.46 | 0.46 | 88 | 1007.1 |
| 20260507000502 | 18 | 232 | 0.0 | 1.6 | 0.00 | 0.46 | 0.46 | 88 | 1006.9 |
| 20260507000003 | 18 | 232 | 0.0 | 1.6 | 0.00 | 0.46 | 0.46 | 87 | 1006.8 |
| 20260506235002 | 18 | 232 | 0.0 | 1.6 | 0.00 | 0.46 | 0.46 | 87 | 1006.6 |
| 20260506234502 | 18 | 232 | 0.0 | 1.6 | 0.00 | 0.46 | 0.46 | 87 | 1006.7 |
| 20260506234003 | 18 | 232 | 0.0 | 1.6 | 0.00 | 0.46 | 0.46 | 87 | 1006.4 |
| 20260506233002 | 18 | 230 | 0.0 | 3.2 | 0.00 | 0.46 | 0.46 | 86 | 1006.3 |
| 20260506232503 | 18 | 255 | 0.0 | 3.2 | 0.00 | 0.46 | 0.46 | 86 | 1006.4 |
| 20260506232003 | 18 | 235 | 0.0 | 4.8 | 0.00 | 0.46 | 0.46 | 86 | 1006.6 |
| 20260506231502 | 18 | 239 | 1.6 | 4.8 | 0.00 | 0.46 | 0.46 | 85 | 1006.6 |
| 20260506230503 | 18 | 228 | 1.6 | 9.7 | 0.00 | 0.46 | 0.46 | 85 | 1006.5 |
| 20260506225003 | 18 | 231 | 1.6 | 6.4 | 0.00 | 0.46 | 0.46 | 84 | 1006.5 |
| 20260506224002 | 19 | 228 | 1.6 | 9.7 | 0.00 | 0.46 | 0.46 | 83 | 1006.5 |
| 20260506223502 | 19 | 233 | 3.2 | 12.9 | 0.00 | 0.46 | 0.46 | 83 | 1006.5 |
| 20260506223003 | 19 | 228 | 3.2 | 12.9 | 0.00 | 0.46 | 0.46 | 82 | 1006.6 |
| 20260506222503 | 19 | 220 | 3.2 | 9.7 | 0.00 | 0.46 | 0.46 | 83 | 1006.4 |
| 20260506222002 | 19 | 227 | 3.2 | 14.5 | 0.00 | 0.46 | 0.46 | 83 | 1006.5 |
| 20260506221502 | 19 | 228 | 3.2 | 14.5 | 0.00 | 0.46 | 0.46 | 83 | 1006.5 |
| 20260506221003 | 19 | 231 | 3.2 | 11.3 | 0.00 | 0.46 | 0.46 | 83 | 1006.4 |
| 20260506220002 | 19 | 230 | 1.6 | 11.3 | 0.00 | 0.46 | 0.46 | 83 | 1006.4 |
| 20260506215502 | 19 | 233 | 1.6 | 8.0 | 0.00 | 0.46 | 0.46 | 83 | 1006.4 |
| 20260506215003 | 19 | 226 | 3.2 | 8.0 | 0.00 | 0.46 | 0.46 | 82 | 1006.2 |
| 20260506214502 | 19 | 229 | 1.6 | 8.0 | 0.00 | 0.46 | 0.46 | 82 | 1006.2 |
| 20260506214002 | 19 | 230 | 1.6 | 8.0 | 0.00 | 0.46 | 0.46 | 82 | 1006.2 |
| 20260506213503 | 19 | 228 | 1.6 | 6.4 | 0.00 | 0.46 | 0.46 | 83 | 1006.0 |
| 20260506213003 | 19 | 229 | 3.2 | 9.7 | 0.00 | 0.46 | 0.46 | 82 | 1005.8 |
| 20260506212502 | 19 | 228 | 3.2 | 9.7 | 0.00 | 0.46 | 0.46 | 82 | 1005.9 |
| 20260506212002 | 19 | 223 | 1.6 | 11.3 | 0.00 | 0.46 | 0.46 | 83 | 1005.9 |
| 20260506211503 | 19 | 222 | 1.6 | 11.3 | 0.00 | 0.46 | 0.46 | 83 | 1005.9 |
| 20260506211005 | 19 | 220 | 1.6 | 4.8 | 0.00 | 0.46 | 0.46 | 84 | 1006.0 |
| 20260506205502 | 18 | 223 | 3.2 | 9.7 | 0.00 | 0.46 | 0.46 | 84 | 1005.7 |
| 20260506205003 | 18 | 226 | 3.2 | 12.9 | 0.00 | 0.46 | 0.46 | 83 | 1005.7 |
| 20260506204002 | 18 | 233 | 1.6 | 6.4 | 0.00 | 0.46 | 0.46 | 83 | 1005.9 |
| 20260506203503 | 19 | 232 | 1.6 | 6.4 | 0.00 | 0.46 | 0.46 | 83 | 1006.0 |
| 20260506203004 | 19 | 270 | 1.6 | 9.7 | 0.00 | 0.46 | 0.46 | 83 | 1005.9 |
| 20260506202503 | 19 | 257 | 1.6 | 9.7 | 0.00 | 0.46 | 0.46 | 82 | 1005.9 |
| 20260506202002 | 19 | 225 | 3.2 | 11.3 | 0.00 | 0.46 | 0.46 | 83 | 1005.8 |
| 20260506201502 | 19 | 229 | 3.2 | 11.3 | 0.00 | 0.46 | 0.46 | 82 | 1005.8 |
| 20260506201003 | 19 | 233 | 4.8 | 12.9 | 0.00 | 0.46 | 0.46 | 83 | 1005.8 |
| 20260506200502 | 19 | 231 | 4.8 | 12.9 | 0.00 | 0.46 | 0.46 | 84 | 1005.9 |
| 20260506200003 | 18 | 228 | 3.2 | 9.7 | 0.00 | 0.46 | 0.46 | 84 | 1005.8 |
| 20260506195503 | 18 | 226 | 3.2 | 14.5 | 0.00 | 0.46 | 0.46 | 85 | 1005.7 |
| 20260506195002 | 18 | 226 | 3.2 | 14.5 | 0.00 | 0.46 | 0.46 | 86 | 1006.0 |
| 20260506194502 | 17 | 228 | 4.8 | 16.1 | 0.00 | 0.46 | 0.46 | 86 | 1006.0 |
| 20260506194003 | 17 | 227 | 4.8 | 16.1 | 0.00 | 0.46 | 0.46 | 86 | 1006.1 |
| 20260506193505 | 17 | 224 | 3.2 | 14.5 | 0.00 | 0.46 | 0.46 | 86 | 1006.2 |
| 20260506193003 | 17 | 227 | 3.2 | 11.3 | 0.00 | 0.46 | 0.46 | 86 | 1006.2 |
| 20260506192503 | 17 | 223 | 4.8 | 12.9 | 0.00 | 0.46 | 0.46 | 86 | 1006.3 |
| 20260506192002 | 18 | 222 | 6.4 | 14.5 | 0.00 | 0.46 | 0.46 | 87 | 1006.3 |
| 20260506191502 | 18 | 225 | 4.8 | 14.5 | 0.00 | 0.46 | 0.46 | 86 | 1006.3 |
| 20260506190502 | 18 | 223 | 4.8 | 17.7 | 0.00 | 0.46 | 0.46 | 87 | 1006.3 |
| 20260506190002 | 18 | 222 | 4.8 | 17.7 | 0.00 | 0.46 | 0.46 | 88 | 1006.3 |
| 20260506185502 | 17 | 222 | 4.8 | 14.5 | 0.00 | 0.46 | 0.46 | 89 | 1006.3 |
| 20260506185003 | 17 | 217 | 4.8 | 14.5 | 0.00 | 0.46 | 0.46 | 89 | 1006.4 |
| 20260506184502 | 17 | 222 | 6.4 | 17.7 | 0.00 | 0.46 | 0.46 | 90 | 1006.3 |
| 20260506184003 | 17 | 219 | 4.8 | 17.7 | 0.00 | 0.46 | 0.46 | 90 | 1006.3 |
| 20260506183003 | 16 | 226 | 4.8 | 17.7 | 0.00 | 0.46 | 0.46 | 91 | 1006.4 |
| 20260506182004 | 16 | 227 | 4.8 | 16.1 | 0.00 | 0.46 | 0.46 | 91 | 1006.5 |
| 20260506181003 | 16 | 224 | 4.8 | 14.5 | 0.00 | 0.46 | 0.46 | 92 | 1006.7 |
| 20260506180503 | 16 | 217 | 3.2 | 16.1 | 0.00 | 0.46 | 0.46 | 92 | 1006.6 |
| 20260506180003 | 15 | 224 | 4.8 | 16.1 | 0.00 | 0.46 | 0.46 | 92 | 1006.9 |
| 20260506175003 | 15 | 226 | 4.8 | 12.9 | 0.00 | 0.46 | 0.46 | 92 | 1006.9 |
| 20260506174502 | 15 | 223 | 4.8 | 20.9 | 0.00 | 0.46 | 0.46 | 92 | 1006.9 |
| 20260506174002 | 15 | 226 | 4.8 | 20.9 | 0.00 | 0.46 | 0.46 | 92 | 1006.9 |
| 20260506172505 | 15 | 217 | 4.8 | 19.3 | 0.00 | 0.46 | 0.46 | 92 | 1006.7 |
| 20260506171502 | 15 | 219 | 4.8 | 22.5 | 0.00 | 0.46 | 0.46 | 92 | 1006.7 |
| 20260506171003 | 15 | 221 | 6.4 | 22.5 | 0.00 | 0.46 | 0.46 | 92 | 1006.8 |
| 20260506170503 | 15 | 211 | 4.8 | 17.7 | 0.00 | 0.46 | 0.46 | 92 | 1006.8 |
| 20260506170003 | 15 | 202 | 3.2 | 11.3 | 0.00 | 0.46 | 0.46 | 92 | 1006.7 |
| 20260506165502 | 15 | 202 | 4.8 | 14.5 | 0.00 | 0.46 | 0.46 | 92 | 1006.7 |
| 20260506164503 | 15 | 202 | 6.4 | 16.1 | 0.03 | 0.46 | 0.46 | 92 | 1006.9 |
| 20260506164003 | 15 | 204 | 4.8 | 12.9 | 0.05 | 0.46 | 0.46 | 92 | 1007.0 |
| 20260506163502 | 15 | 207 | 4.8 | 16.1 | 0.08 | 0.46 | 0.46 | 92 | 1007.0 |
| 20260506163002 | 15 | 211 | 4.8 | 17.7 | 0.10 | 0.46 | 0.46 | 92 | 1007.1 |
| 20260506162502 | 15 | 212 | 4.8 | 20.9 | 0.10 | 0.46 | 0.46 | 93 | 1007.1 |
| 20260506162003 | 15 | 203 | 4.8 | 20.9 | 0.13 | 0.46 | 0.46 | 93 | 1006.9 |
| 20260506161503 | 15 | 196 | 6.4 | 20.9 | 0.15 | 0.46 | 0.46 | 93 | 1007.2 |
| 20260506161003 | 15 | 192 | 6.4 | 20.9 | 0.18 | 0.46 | 0.46 | 93 | 1007.1 |
| 20260506160502 | 15 | 188 | 4.8 | 16.1 | 0.20 | 0.46 | 0.46 | 93 | 1006.8 |
| 20260506154503 | 15 | 192 | 4.8 | 11.3 | 0.23 | 0.43 | 0.43 | 93 | 1006.8 |
| 20260506154003 | 15 | 191 | 3.2 | 12.9 | 0.20 | 0.41 | 0.41 | 93 | 1007.3 |
| 20260506153502 | 15 | 188 | 3.2 | 12.9 | 0.18 | 0.38 | 0.38 | 93 | 1007.6 |
| 20260506152502 | 15 | 198 | 4.8 | 12.9 | 0.18 | 0.36 | 0.36 | 92 | 1007.9 |
| 20260506151503 | 15 | 185 | 3.2 | 12.9 | 0.15 | 0.30 | 0.30 | 92 | 1007.9 |
| 20260506150502 | 15 | 195 | 3.2 | 9.7 | 0.13 | 0.25 | 0.25 | 92 | 1008.0 |
| 20260506144502 | 15 | 192 | 4.8 | 12.9 | 0.13 | 0.20 | 0.20 | 92 | 1007.8 |
| 20260506144002 | 15 | 186 | 4.8 | 16.1 | 0.15 | 0.20 | 0.20 | 92 | 1007.7 |
| 20260506143503 | 15 | 183 | 4.8 | 16.1 | 0.15 | 0.20 | 0.20 | 92 | 1007.8 |
| 20260506143003 | 15 | 186 | 3.2 | 9.7 | 0.18 | 0.20 | 0.20 | 91 | 1007.5 |
| 20260506142002 | 15 | 191 | 3.2 | 9.7 | 0.18 | 0.18 | 0.18 | 91 | 1007.7 |
| 20260506141503 | 15 | 194 | 3.2 | 9.7 | 0.15 | 0.15 | 0.15 | 91 | 1008.0 |
| 20260506141003 | 15 | 184 | 3.2 | 16.1 | 0.15 | 0.15 | 0.15 | 91 | 1007.9 |
| 20260506140503 | 15 | 184 | 3.2 | 16.1 | 0.13 | 0.13 | 0.13 | 91 | 1008.0 |
| 20260506140005 | 15 | 186 | 3.2 | 9.7 | 0.13 | 0.13 | 0.13 | 90 | 1007.9 |
| 20260506135003 | 15 | 187 | 1.6 | 8.0 | 0.08 | 0.08 | 0.08 | 89 | 1007.9 |
| 20260506134003 | 16 | 187 | 3.2 | 12.9 | 0.05 | 0.05 | 0.05 | 88 | 1007.8 |
| 20260506132503 | 16 | 190 | 1.6 | 6.4 | 0.00 | 0.00 | 0.00 | 86 | 1007.9 |
| 20260506132004 | 16 | 194 | 1.6 | 6.4 | 0.00 | 0.00 | 0.00 | 86 | 1007.8 |
| 20260506131503 | 16 | 195 | 1.6 | 6.4 | 0.00 | 0.00 | 0.00 | 85 | 1007.7 |
| 20260506131003 | 16 | 203 | 3.2 | 12.9 | 0.00 | 0.00 | 0.00 | 85 | 1007.8 |
| 20260506130502 | 16 | 199 | 3.2 | 12.9 | 0.00 | 0.00 | 0.00 | 85 | 1007.8 |
| 20260506130003 | 16 | 189 | 3.2 | 9.7 | 0.00 | 0.00 | 0.00 | 84 | 1007.9 |
| 20260506125502 | 16 | 198 | 4.8 | 11.3 | 0.00 | 0.00 | 0.00 | 84 | 1007.9 |
| 20260506125003 | 16 | 202 | 4.8 | 16.1 | 0.00 | 0.00 | 0.00 | 83 | 1008.0 |
| 20260506124003 | 16 | 197 | 3.2 | 9.7 | 0.00 | 0.00 | 0.00 | 83 | 1008.0 |
| 20260506123503 | 17 | 198 | 3.2 | 11.3 | 0.00 | 0.00 | 0.00 | 83 | 1008.0 |
| 20260506123002 | 17 | 210 | 4.8 | 14.5 | 0.00 | 0.00 | 0.00 | 82 | 1008.2 |
| 20260506122502 | 17 | 218 | 4.8 | 16.1 | 0.00 | 0.00 | 0.00 | 82 | 1008.2 |
| 20260506122002 | 17 | 213 | 4.8 | 16.1 | 0.00 | 0.00 | 0.00 | 82 | 1008.1 |
| 20260506121503 | 17 | 211 | 4.8 | 17.7 | 0.00 | 0.00 | 0.00 | 82 | 1008.2 |
| 20260506121003 | 17 | 208 | 4.8 | 17.7 | 0.00 | 0.00 | 0.00 | 82 | 1008.1 |
| 20260506120502 | 17 | 206 | 4.8 | 16.1 | 0.00 | 0.00 | 0.00 | 82 | 1007.9 |
| 20260506120002 | 16 | 211 | 4.8 | 16.1 | 0.00 | 0.00 | 0.00 | 82 | 1008.0 |
| 20260506115502 | 16 | 220 | 4.8 | 16.1 | 0.00 | 0.00 | 0.00 | 82 | 1007.8 |
| 20260506115005 | 16 | 210 | 6.4 | 16.1 | 0.00 | 0.00 | 0.00 | 82 | 1007.7 |
| 20260506114503 | 16 | 203 | 4.8 | 16.1 | 0.00 | 0.00 | 0.00 | 82 | 1007.7 |
| 20260506114002 | 16 | 198 | 3.2 | 11.3 | 0.00 | 0.00 | 0.00 | 82 | 1007.6 |
| 20260506113502 | 16 | 201 | 4.8 | 12.9 | 0.00 | 0.00 | 0.00 | 82 | 1007.5 |
| 20260506112503 | 16 | 201 | 4.8 | 9.7 | 0.00 | 0.00 | 0.00 | 82 | 1007.6 |
| 20260506111502 | 16 | 195 | 4.8 | 17.7 | 0.00 | 0.00 | 0.00 | 82 | 1007.5 |
| 20260506110503 | 16 | 189 | 4.8 | 16.1 | 0.00 | 0.00 | 0.00 | 82 | 1007.4 |
| 20260506105502 | 16 | 194 | 4.8 | 16.1 | 0.00 | 0.00 | 0.00 | 81 | 1007.4 |
| 20260506105002 | 16 | 193 | 4.8 | 14.5 | 0.00 | 0.00 | 0.00 | 82 | 1007.3 |
| 20260506103503 | 16 | 195 | 4.8 | 16.1 | 0.00 | 0.00 | 0.00 | 81 | 1007.4 |
| 20260506102503 | 16 | 190 | 6.4 | 14.5 | 0.00 | 0.00 | 0.00 | 81 | 1007.2 |
| 20260506102003 | 16 | 189 | 6.4 | 20.9 | 0.00 | 0.00 | 0.00 | 81 | 1007.1 |
| 20260506101502 | 16 | 187 | 6.4 | 20.9 | 0.00 | 0.00 | 0.00 | 81 | 1007.3 |
| 20260506101002 | 16 | 191 | 6.4 | 14.5 | 0.00 | 0.00 | 0.00 | 81 | 1007.2 |
| 20260506100502 | 16 | 193 | 6.4 | 14.5 | 0.00 | 0.00 | 0.00 | 81 | 1007.2 |
| 20260506100003 | 17 | 192 | 6.4 | 16.1 | 0.00 | 0.00 | 0.00 | 80 | 1007.1 |
| 20260506095503 | 17 | 189 | 4.8 | 16.1 | 0.00 | 0.00 | 0.00 | 80 | 1007.0 |
| 20260506095002 | 17 | 190 | 4.8 | 16.1 | 0.00 | 0.00 | 0.00 | 80 | 1007.1 |
| 20260506094502 | 17 | 193 | 4.8 | 12.9 | 0.00 | 0.00 | 0.00 | 80 | 1007.2 |
| 20260506094006 | 17 | 188 | 4.8 | 16.1 | 0.00 | 0.00 | 0.00 | 80 | 1007.1 |
| 20260506093503 | 17 | 187 | 6.4 | 16.1 | 0.00 | 0.00 | 0.00 | 79 | 1007.0 |
| 20260506093003 | 17 | 187 | 6.4 | 16.1 | 0.00 | 0.00 | 0.00 | 79 | 1007.1 |
| 20260506092502 | 17 | 191 | 6.4 | 14.5 | 0.00 | 0.00 | 0.00 | 79 | 1007.1 |
| 20260506092002 | 17 | 197 | 6.4 | 12.9 | 0.00 | 0.00 | 0.00 | 78 | 1007.2 |
| 20260506091502 | 17 | 194 | 6.4 | 14.5 | 0.00 | 0.00 | 0.00 | 78 | 1007.2 |
| 20260506091003 | 17 | 188 | 6.4 | 16.1 | 0.00 | 0.00 | 0.00 | 78 | 1007.3 |
| 20260506090503 | 17 | 193 | 6.4 | 16.1 | 0.00 | 0.00 | 0.00 | 77 | 1007.3 |
| 20260506090003 | 17 | 197 | 4.8 | 19.3 | 0.00 | 0.00 | 0.00 | 77 | 1007.3 |
| 20260506085503 | 17 | 190 | 4.8 | 19.3 | 0.00 | 0.00 | 0.00 | 77 | 1007.3 |
| 20260506085003 | 17 | 193 | 4.8 | 14.5 | 0.00 | 0.00 | 0.00 | 77 | 1007.4 |
| 20260506084504 | 17 | 198 | 4.8 | 14.5 | 0.00 | 0.00 | 0.00 | 77 | 1007.5 |
| 20260506084002 | 17 | 195 | 4.8 | 14.5 | 0.00 | 0.00 | 0.00 | 76 | 1007.3 |
| 20260506083503 | 17 | 191 | 4.8 | 14.5 | 0.00 | 0.00 | 0.00 | 76 | 1007.3 |
| 20260506083002 | 17 | 191 | 4.8 | 14.5 | 0.00 | 0.00 | 0.00 | 76 | 1007.3 |
| 20260506082504 | 17 | 194 | 4.8 | 12.9 | 0.00 | 0.00 | 0.00 | 76 | 1007.3 |
| 20260506081503 | 17 | 189 | 4.8 | 14.5 | 0.00 | 0.00 | 0.00 | 75 | 1007.3 |
| 20260506081002 | 17 | 188 | 4.8 | 11.3 | 0.00 | 0.00 | 0.00 | 75 | 1007.4 |
| 20260506080506 | 17 | 190 | 4.8 | 11.3 | 0.00 | 0.00 | 0.00 | 75 | 1007.3 |
| 20260506073503 | 18 | 190 | 3.2 | 12.9 | 0.00 | 0.00 | 0.00 | 73 | 1007.4 |
| 20260506073003 | 18 | 196 | 3.2 | 11.3 | 0.00 | 0.00 | 0.00 | 73 | 1007.5 |
| 20260506072503 | 18 | 191 | 3.2 | 9.7 | 0.00 | 0.00 | 0.00 | 72 | 1007.5 |
| 20260506072002 | 18 | 189 | 3.2 | 9.7 | 0.00 | 0.00 | 0.00 | 72 | 1007.6 |
| 20260506071503 | 18 | 191 | 3.2 | 11.3 | 0.00 | 0.00 | 0.00 | 72 | 1007.6 |
| 20260506071003 | 18 | 192 | 4.8 | 11.3 | 0.00 | 0.00 | 0.00 | 72 | 1007.6 |
| 20260506070502 | 18 | 188 | 3.2 | 12.9 | 0.00 | 0.00 | 0.00 | 72 | 1007.6 |
| 20260506062503 | 18 | 188 | 3.2 | 6.4 | 0.00 | 0.00 | 0.00 | 70 | 1008.1 |
| 20260506062002 | 18 | 188 | 3.2 | 8.0 | 0.00 | 0.00 | 0.00 | 70 | 1008.1 |
| 20260506060502 | 18 | 187 | 3.2 | 6.4 | 0.00 | 0.00 | 0.00 | 69 | 1008.3 |
| 20260506051003 | 18 | 203 | 1.6 | 6.4 | 0.00 | 0.00 | 0.00 | 66 | 1008.6 |
| 20260506050502 | 18 | 198 | 1.6 | 6.4 | 0.00 | 0.00 | 0.00 | 66 | 1008.7 |
| 20260506045002 | 18 | 197 | 3.2 | 12.9 | 0.00 | 0.00 | 0.00 | 65 | 1008.9 |
| 20260506044503 | 18 | 200 | 3.2 | 12.9 | 0.00 | 0.00 | 0.00 | 64 | 1008.8 |
| 20260506043503 | 18 | 200 | 3.2 | 9.7 | 0.00 | 0.00 | 0.00 | 64 | 1008.9 |
| 20260506043002 | 18 | 188 | 3.2 | 8.0 | 0.00 | 0.00 | 0.00 | 64 | 1008.7 |
| 20260506042503 | 18 | 188 | 3.2 | 9.7 | 0.00 | 0.00 | 0.00 | 64 | 1008.8 |
| 20260506042003 | 18 | 193 | 3.2 | 9.7 | 0.00 | 0.00 | 0.00 | 64 | 1008.9 |
| 20260506041502 | 18 | 187 | 3.2 | 9.7 | 0.00 | 0.00 | 0.00 | 64 | 1008.9 |
| 20260506040502 | 18 | 192 | 3.2 | 9.7 | 0.00 | 0.00 | 0.00 | 64 | 1008.8 |
| 20260506040004 | 18 | 188 | 1.6 | 6.4 | 0.00 | 0.00 | 0.00 | 64 | 1009.0 |
| 20260506035504 | 18 | 191 | 3.2 | 8.0 | 0.00 | 0.00 | 0.00 | 64 | 1008.9 |
| 20260506035003 | 18 | 195 | 1.6 | 8.0 | 0.00 | 0.00 | 0.00 | 64 | 1008.9 |
| 20260506034503 | 18 | 190 | 1.6 | 6.4 | 0.00 | 0.00 | 0.00 | 64 | 1008.8 |
| 20260506034002 | 18 | 190 | 1.6 | 4.8 | 0.00 | 0.00 | 0.00 | 63 | 1008.8 |
| 20260506033502 | 18 | 193 | 0.0 | 4.8 | 0.00 | 0.00 | 0.00 | 63 | 1008.8 |
| 20260506032503 | 18 | 188 | 0.0 | 3.2 | 0.00 | 0.00 | 0.00 | 62 | 1008.7 |
| 20260506032002 | 18 | 177 | 0.0 | 3.2 | 0.00 | 0.00 | 0.00 | 62 | 1008.8 |
| 20260506031503 | 18 | 175 | 0.0 | 4.8 | 0.00 | 0.00 | 0.00 | 61 | 1008.8 |